Time;durP1;ratioP1;P1;durP2;ratioP2;P2;SDS_P1;SDS_P2;PMS_P1;PMS_P2;Temp;Humidity;BMP_temperature;BMP_pressure;BME280_temperature;BME280_humidity;BME280_pressure;Samples;Min_cycle;Max_cycle;Signal;HPM_P1;HPM_P2
2023/03/26 00:01:48;;;;;;;37.90;29.60;;;;;;;11.46;100.00;98147.05;106130;1287;25361;-66
2023/03/26 00:04:18;;;;;;;37.00;28.90;;;;;;;11.46;100.00;98144.25;106151;1287;26213;-66
2023/03/26 00:06:49;;;;;;;32.80;26.50;;;;;;;11.44;100.00;98143.52;106102;1288;23741;-66
2023/03/26 00:09:17;;;;;;;32.00;26.30;;;;;;;11.42;100.00;98140.39;106153;1286;125539;-66
2023/03/26 00:11:52;;;;;;;30.70;25.10;;;;;;;11.41;100.00;98139.40;106249;1282;25341;-64
2023/03/26 00:14:22;;;;;;;32.10;26.00;;;;;;;11.38;100.00;98138.92;109655;1283;22451;-67
2023/03/26 00:16:52;;;;;;;29.50;24.10;;;;;;;11.34;100.00;98138.05;109984;1283;22958;-67
2023/03/26 00:19:21;;;;;;;29.30;22.40;;;;;;;11.36;100.00;98138.05;109955;1283;22507;-67
2023/03/26 00:21:50;;;;;;;27.90;21.50;;;;;;;11.37;100.00;98142.94;109949;1283;22409;-67
2023/03/26 00:24:18;;;;;;;25.10;20.20;;;;;;;11.35;100.00;98144.57;109847;1282;23055;-67
2023/03/26 00:26:52;;;;;;;25.80;20.30;;;;;;;11.31;100.00;98141.18;106753;1283;22892;-67
2023/03/26 00:29:23;;;;;;;19.00;16.10;;;;;;;11.31;100.00;98145.77;106715;1283;25337;-66
2023/03/26 00:31:52;;;;;;;19.70;15.10;;;;;;;11.31;100.00;98142.81;106776;1282;23886;-66
2023/03/26 00:34:23;;;;;;;13.20;11.20;;;;;;;11.30;100.00;98144.77;106956;1281;22522;-66
2023/03/26 00:36:53;;;;;;;13.10;10.30;;;;;;;11.24;100.00;98141.44;106909;1282;25418;-66
2023/03/26 00:39:22;;;;;;;12.60;9.10;;;;;;;11.23;100.00;98138.12;106678;1282;23612;-66
2023/03/26 00:41:53;;;;;;;10.60;8.20;;;;;;;11.21;100.00;98141.05;106910;1282;25350;-66
2023/03/26 00:44:22;;;;;;;9.00;7.30;;;;;;;11.17;100.00;98137.38;106724;1283;22796;-66
2023/03/26 00:46:51;;;;;;;7.50;6.40;;;;;;;11.09;100.00;98137.59;106689;1283;25360;-66
2023/03/26 00:49:19;;;;;;;8.30;5.30;;;;;;;11.05;100.00;98139.34;106749;1282;22527;-66
2023/03/26 00:51:54;;;;;;;8.50;5.00;;;;;;;11.02;100.00;98139.94;106955;1278;22532;-66
2023/03/26 00:54:23;;;;;;;7.20;4.40;;;;;;;11.00;100.00;98147.48;106971;1278;24186;-66
2023/03/26 00:56:56;;;;;;;5.30;4.30;;;;;;;10.95;100.00;98150.66;106997;1278;27611;-66
2023/03/26 00:59:29;;;;;;;4.30;3.60;;;;;;;10.94;100.00;98155.12;107072;1257;23201;-66
2023/03/26 01:01:57;;;;;;;4.90;3.40;;;;;;;10.94;100.00;98156.91;107300;1278;22543;-66
2023/03/26 01:04:29;;;;;;;5.00;3.80;;;;;;;10.93;100.00;98161.94;107088;1278;23247;-66
2023/03/26 01:07:21;;;;;;;4.90;3.80;;;;;;;10.90;100.00;98160.50;107227;1279;22524;-66
2023/03/26 01:09:50;;;;;;;5.20;3.60;;;;;;;10.86;100.00;98158.52;107104;1279;22519;-66
2023/03/26 01:12:28;;;;;;;5.80;3.30;;;;;;;10.81;100.00;98150.33;107040;1279;25580;-66
2023/03/26 01:14:59;;;;;;;4.80;2.30;;;;;;;10.72;100.00;98146.36;106799;1279;22465;-66
2023/03/26 01:17:36;;;;;;;4.10;2.20;;;;;;;10.63;100.00;98154.37;107398;1278;23299;-67
2023/03/26 01:20:10;;;;;;;2.80;2.10;;;;;;;10.57;100.00;98159.70;107439;1278;24397;-66
2023/03/26 01:22:41;;;;;;;2.90;1.80;;;;;;;10.51;100.00;98160.73;107484;1276;23859;-66
2023/03/26 01:25:09;;;;;;;3.30;1.60;;;;;;;10.42;100.00;98164.63;107296;1275;23101;-66
2023/03/26 01:27:58;;;;;;;2.30;0.90;;;;;;;10.37;100.00;98170.89;107077;1275;27589;-66
2023/03/26 01:30:26;;;;;;;1.50;0.80;;;;;;;10.28;100.00;98174.05;107197;1274;25324;-66
2023/03/26 01:33:00;;;;;;;1.90;1.00;;;;;;;10.20;100.00;98182.39;107275;1257;22513;-66
2023/03/26 01:35:40;;;;;;;1.60;0.80;;;;;;;10.11;100.00;98188.61;110555;1274;22253;-66
2023/03/26 01:38:27;;;;;;;1.70;0.80;;;;;;;10.02;100.00;98194.73;110537;1274;22445;-67
2023/03/26 01:40:59;;;;;;;1.70;0.70;;;;;;;9.94;100.00;98198.67;110496;1275;22277;-66
2023/03/26 01:43:33;;;;;;;1.80;0.90;;;;;;;9.90;100.00;98202.16;110396;1275;23482;-66
2023/03/26 01:46:04;;;;;;;2.30;0.50;;;;;;;9.83;100.00;98196.98;110490;1275;22264;-67
2023/03/26 01:48:40;;;;;;;0.60;0.40;;;;;;;9.78;100.00;98198.16;110256;1276;22925;-67
2023/03/26 01:51:09;;;;;;;1.50;0.70;;;;;;;9.73;100.00;98193.70;110255;1275;22238;-67
2023/03/26 01:53:41;;;;;;;0.50;0.40;;;;;;;9.67;100.00;98195.64;110483;1276;22235;-66
2023/03/26 01:56:12;;;;;;;1.60;0.60;;;;;;;9.59;100.00;98194.31;110360;1275;22298;-66
2023/03/26 01:58:54;;;;;;;0.60;0.40;;;;;;;9.56;100.00;98200.75;107362;1275;25297;-66
2023/03/26 02:01:29;;;;;;;0.60;0.40;;;;;;;9.47;100.00;98199.88;107438;1274;25274;-66
2023/03/26 02:04:01;;;;;;;1.10;0.50;;;;;;;9.41;100.00;98206.73;107592;1274;25894;-66
2023/03/26 02:06:46;;;;;;;1.10;0.70;;;;;;;9.38;100.00;98204.83;107149;1275;26067;-66
2023/03/26 02:09:19;;;;;;;1.00;0.60;;;;;;;9.36;100.00;98210.36;107163;1276;24237;-66
2023/03/26 02:11:47;;;;;;;1.10;0.50;;;;;;;9.34;100.00;98207.75;107121;1275;22654;-67
2023/03/26 02:14:18;;;;;;;1.20;0.60;;;;;;;9.31;100.00;98212.86;107173;1276;25322;-67
2023/03/26 02:16:46;;;;;;;1.30;0.50;;;;;;;9.30;100.00;98214.81;107488;1274;26574;-66
2023/03/26 02:19:20;;;;;;;1.50;0.60;;;;;;;9.29;100.00;98224.06;107388;1274;25519;-67
2023/03/26 02:21:50;;;;;;;1.30;0.50;;;;;;;9.26;100.00;98225.85;107227;1274;24232;-66
2023/03/26 02:24:19;;;;;;;1.20;0.60;;;;;;;9.26;100.00;98225.75;107382;1274;24240;-67
2023/03/26 02:26:48;;;;;;;1.70;0.70;;;;;;;9.24;100.00;98237.41;107502;1275;25306;-67
2023/03/26 02:29:19;;;;;;;1.90;0.60;;;;;;;9.19;100.00;98244.83;107529;1276;25561;-66
2023/03/26 02:31:48;;;;;;;1.20;0.50;;;;;;;9.20;100.00;98259.54;107495;1276;22513;-66
2023/03/26 02:34:17;;;;;;;2.90;0.60;;;;;;;9.19;100.00;98266.28;107222;1276;25410;-66
2023/03/26 02:36:50;;;;;;;0.70;0.40;;;;;;;9.20;100.00;98264.02;107360;1270;25344;-67
2023/03/26 02:39:19;;;;;;;1.70;0.50;;;;;;;9.22;100.00;98271.98;107338;1274;25466;-66
2023/03/26 02:42:02;;;;;;;1.30;0.60;;;;;;;9.20;100.00;98277.84;107315;1274;26532;-66
2023/03/26 02:44:32;;;;;;;2.20;0.60;;;;;;;9.13;100.00;98280.23;107333;1274;25405;-66
2023/03/26 02:47:00;;;;;;;1.70;0.70;;;;;;;9.11;100.00;98276.77;107149;1276;22572;-68
2023/03/26 02:49:49;;;;;;;1.80;0.60;;;;;;;9.09;100.00;98279.76;107271;1275;23355;-66
2023/03/26 02:52:28;;;;;;;2.00;0.60;;;;;;;9.08;100.00;98277.81;107065;1275;25350;-67
2023/03/26 02:55:05;;;;;;;1.40;0.60;;;;;;;9.06;100.00;98278.88;107183;1275;25338;-66
2023/03/26 02:57:35;;;;;;;2.50;0.70;;;;;;;8.98;100.00;98283.67;107549;1274;25220;-66
2023/03/26 03:00:21;;;;;;;2.10;0.90;;;;;;;8.96;100.00;98282.38;107395;1274;25401;-67
2023/03/26 03:02:51;;;;;;;2.10;0.70;;;;;;;8.92;100.00;98286.17;107372;1274;23449;-66
2023/03/26 03:05:33;;;;;;;2.00;0.90;;;;;;;8.90;100.00;98295.97;107404;1276;26650;-66
2023/03/26 03:08:28;;;;;;;2.50;0.70;;;;;;;8.87;100.00;98298.35;107320;1276;25344;-67
2023/03/26 03:11:20;;;;;;;1.40;0.80;;;;;;;8.84;100.00;98301.71;107102;1276;24903;-67
2023/03/26 03:13:50;;;;;;;2.00;0.60;;;;;;;8.81;100.00;98310.33;107413;1276;25616;-67
2023/03/26 03:16:27;;;;;;;1.60;0.90;;;;;;;8.80;100.00;98320.48;107274;1270;22755;-67
2023/03/26 03:18:57;;;;;;;3.30;1.00;;;;;;;8.82;100.00;98324.36;107302;1276;24388;-66
2023/03/26 03:21:37;;;;;;;3.10;0.90;;;;;;;8.85;100.00;98330.12;107297;1276;23333;-67
2023/03/26 03:24:06;;;;;;;2.10;1.10;;;;;;;8.83;100.00;98331.63;110503;1275;22960;-67
2023/03/26 03:26:37;;;;;;;4.00;1.00;;;;;;;8.80;100.00;98335.52;110514;1274;22246;-67
2023/03/26 03:29:30;;;;;;;3.90;1.00;;;;;;;8.80;100.00;98338.61;110507;1275;22211;-67
2023/03/26 03:32:04;;;;;;;3.50;1.30;;;;;;;8.81;100.00;98341.92;110510;1274;22191;-67
2023/03/26 03:34:41;;;;;;;4.50;1.10;;;;;;;8.80;100.00;98340.78;110419;1275;23176;-67
2023/03/26 03:37:09;;;;;;;3.60;1.20;;;;;;;8.80;100.00;98343.45;110366;1276;23212;-67
2023/03/26 03:39:45;;;;;;;4.00;1.10;;;;;;;8.76;100.00;98346.11;110366;1275;22209;-67
2023/03/26 03:42:17;;;;;;;2.30;1.10;;;;;;;8.74;100.00;98351.35;109659;1274;22756;-67
2023/03/26 03:44:45;;;;;;;5.00;1.20;;;;;;;8.74;100.00;98357.42;107373;1274;22640;-66
2023/03/26 03:47:34;;;;;;;3.90;1.40;;;;;;;8.74;100.00;98363.99;107281;1274;22527;-67
2023/03/26 03:50:03;;;;;;;4.20;1.30;;;;;;;8.68;100.00;98368.85;107313;1274;22632;-66
2023/03/26 03:52:32;;;;;;;3.40;1.20;;;;;;;8.60;100.00;98372.48;107327;1274;25281;-65
2023/03/26 03:55:01;;;;;;;4.00;1.60;;;;;;;8.59;100.00;98371.36;107342;1275;22522;-66
2023/03/26 03:57:51;;;;;;;4.50;1.30;;;;;;;8.57;100.00;98379.20;107325;1276;24279;-66
2023/03/26 04:00:23;;;;;;;5.00;1.30;;;;;;;8.54;100.00;98381.75;107355;1276;24289;-66
2023/03/26 04:03:13;;;;;;;4.40;1.20;;;;;;;8.53;100.00;98379.05;107440;1273;25233;-66
2023/03/26 04:05:48;;;;;;;4.20;1.20;;;;;;;8.46;100.00;98371.69;107453;1274;25367;-67
2023/03/26 04:08:17;;;;;;;4.30;1.30;;;;;;;8.38;100.00;98368.60;107398;1274;22524;-66
2023/03/26 04:10:50;;;;;;;3.70;1.00;;;;;;;8.35;100.00;98368.36;107332;1274;24264;-66
2023/03/26 04:13:50;;;;;;;3.70;1.10;;;;;;;8.32;100.00;98373.94;107215;1274;22992;-66
2023/03/26 04:16:30;;;;;;;5.20;0.90;;;;;;;8.28;100.00;98375.76;107044;1276;22524;-66
2023/03/26 04:19:01;;;;;;;2.00;0.90;;;;;;;8.29;100.00;98375.05;107260;1275;23232;-66
2023/03/26 04:21:29;;;;;;;4.10;0.90;;;;;;;8.25;100.00;98382.55;107236;1274;24234;-66
2023/03/26 04:23:57;;;;;;;2.70;1.10;;;;;;;8.26;100.00;98389.37;107281;1274;24468;-67
2023/03/26 04:26:46;;;;;;;2.00;0.80;;;;;;;8.27;100.00;98394.52;107363;1274;22516;-66
2023/03/26 04:29:20;;;;;;;4.40;0.80;;;;;;;8.25;100.00;98391.98;107340;1274;24192;-66
2023/03/26 04:32:05;;;;;;;1.60;0.80;;;;;;;8.25;100.00;98400.05;107451;1274;23226;-67
2023/03/26 04:34:35;;;;;;;2.50;1.00;;;;;;;8.20;100.00;98400.71;107168;1275;22556;-66
2023/03/26 04:37:40;;;;;;;3.50;0.90;;;;;;;8.21;100.00;98404.50;107482;1274;25375;-66
2023/03/26 04:40:16;;;;;;;;;;;;;;;8.21;100.00;98409.33;107402;1276;25318;-66
2023/03/26 04:43:05;;;;;;;3.80;1.10;;;;;;;8.18;100.00;98407.30;107373;1275;24207;-66
2023/03/26 04:46:02;;;;;;;4.60;1.20;;;;;;;8.15;100.00;98406.95;107113;1276;24393;-66
2023/03/26 04:48:33;;;;;;;5.50;1.20;;;;;;;8.08;100.00;98407.20;110523;1276;23092;-67
2023/03/26 04:51:08;;;;;;;4.40;1.40;;;;;;;8.06;100.00;98410.24;110361;1276;22272;-65
2023/03/26 04:53:37;;;;;;;5.50;1.30;;;;;;;8.07;100.00;98413.39;110198;1276;22357;-65
2023/03/26 04:56:46;;;;;;;2.90;1.10;;;;;;;8.10;100.00;98412.87;110481;1275;23609;-67
2023/03/26 04:59:34;;;;;;;4.90;1.20;;;;;;;8.12;100.00;98412.79;110501;1276;22192;-67
2023/03/26 05:02:07;;;;;;;2.70;1.30;;;;;;;8.10;100.00;98415.68;110463;1276;22183;-67
2023/03/26 05:04:44;;;;;;;5.00;1.40;;;;;;;8.14;100.00;98411.20;110371;1275;22419;-67
2023/03/26 05:07:16;;;;;;;3.40;1.30;;;;;;;8.20;100.00;98409.02;110499;1276;23069;-67
2023/03/26 05:09:49;;;;;;;6.40;1.40;;;;;;;8.24;100.00;98414.98;109951;1274;22551;-67
2023/03/26 05:12:23;;;;;;;3.90;1.60;;;;;;;8.25;100.00;98416.38;107266;1275;26643;-65
2023/03/26 05:15:12;;;;;;;5.30;1.80;;;;;;;8.34;100.00;98421.09;107255;1276;24203;-67
2023/03/26 05:17:51;;;;;;;7.90;3.40;;;;;;;8.48;100.00;98430.90;107144;1276;25365;-67
2023/03/26 05:20:45;;;;;;;6.70;2.90;;;;;;;8.63;100.00;98445.25;107193;1273;22630;-66
2023/03/26 05:23:16;;;;;;;9.10;3.10;;;;;;;8.69;100.00;98451.47;107333;1274;26518;-67
2023/03/26 05:25:52;;;;;;;3.50;1.60;;;;;;;8.75;100.00;98455.45;107333;1275;23336;-66
2023/03/26 05:28:24;;;;;;;4.10;1.40;;;;;;;9.00;100.00;98454.75;107334;1275;24391;-67
2023/03/26 05:31:30;;;;;;;2.50;1.00;;;;;;;9.18;100.00;98448.37;107261;1276;22525;-67
2023/03/26 05:33:59;;;;;;;4.80;1.30;;;;;;;9.23;100.00;98447.09;107329;1276;22536;-66
2023/03/26 05:36:28;;;;;;;1.90;0.90;;;;;;;9.30;100.00;98446.84;107403;1276;25232;-67
2023/03/26 05:39:24;;;;;;;3.00;1.00;;;;;;;9.49;100.00;98453.05;107340;1274;22521;-67
2023/03/26 05:42:11;;;;;;;2.30;1.00;;;;;;;9.59;100.00;98456.81;107369;1275;22642;-67
2023/03/26 05:44:51;;;;;;;3.10;1.00;;;;;;;9.60;100.00;98446.81;107325;1274;22517;-66
2023/03/26 05:47:24;;;;;;;3.40;1.00;;;;;;;9.55;100.00;98447.64;107362;1275;22548;-67
2023/03/26 05:49:53;;;;;;;3.70;1.20;;;;;;;9.60;100.00;98451.04;107275;1276;22523;-67
2023/03/26 05:52:24;;;;;;;3.30;1.50;;;;;;;9.66;100.00;98444.54;107372;1275;22564;-67
2023/03/26 05:55:27;;;;;;;3.90;1.40;;;;;;;9.78;100.00;98446.71;107303;1276;25561;-67
2023/03/26 05:58:23;;;;;;;3.40;1.60;;;;;;;9.82;100.00;98453.40;107142;1270;25353;-67
2023/03/26 06:01:15;;;;;;;3.60;1.50;;;;;;;9.85;100.00;98450.95;107409;1274;22637;-67
2023/03/26 06:04:03;;;;;;;3.50;1.70;;;;;;;9.96;100.00;98451.46;107366;1274;25491;-66
2023/03/26 06:06:41;;;;;;;2.90;1.50;;;;;;;9.95;100.00;98448.55;107385;1274;23047;-66
2023/03/26 06:09:12;;;;;;;3.40;1.40;;;;;;;9.95;100.00;98445.55;107252;1275;23899;-66
2023/03/26 06:11:40;;;;;;;3.20;1.30;;;;;;;10.03;100.00;98441.77;107225;1276;22523;-66
2023/03/26 06:14:15;;;;;;;4.00;1.00;;;;;;;10.25;100.00;98442.76;107265;1275;25561;-66
2023/03/26 06:17:04;;;;;;;5.70;1.20;;;;;;;10.47;100.00;98435.96;107449;1274;25372;-66
2023/03/26 06:19:53;;;;;;;3.00;1.20;;;;;;;10.53;100.00;98428.88;107293;1276;24380;-66
2023/03/26 06:22:27;;;;;;;3.20;1.40;;;;;;;10.57;100.00;98433.98;107353;1275;26378;-66
2023/03/26 06:25:14;;;;;;;3.20;1.40;;;;;;;10.66;100.00;98432.42;107347;1275;23273;-66
2023/03/26 06:28:05;;;;;;;2.30;1.00;;;;;;;10.75;100.00;98426.80;107384;1274;22994;-67
2023/03/26 06:30:39;;;;;;;4.20;1.60;;;;;;;10.92;100.00;98425.11;107393;1274;26690;-67
2023/03/26 06:33:16;;;;;;;;;;;;;;;11.08;100.00;98420.58;107439;1274;25309;-67
2023/03/26 06:35:49;;;;;;;2.80;1.10;;;;;;;11.30;100.00;98420.48;107553;1275;23618;-67
2023/03/26 06:38:19;;;;;;;2.70;1.40;;;;;;;11.45;100.00;98418.23;107396;1274;25397;-67
2023/03/26 06:40:49;;;;;;;2.40;1.20;;;;;;;11.65;100.00;98410.79;107299;1274;25408;-67
2023/03/26 06:43:27;;;;;;;3.70;1.40;;;;;;;11.80;100.00;98408.19;107329;1274;25490;-67
2023/03/26 06:46:04;;;;;;;;;;;;;;;11.96;100.00;98403.20;107313;1276;25290;-67
2023/03/26 06:48:39;;;;;;;2.90;1.20;;;;;;;12.10;100.00;98404.33;107297;1275;25340;-67
2023/03/26 06:51:13;;;;;;;2.80;1.20;;;;;;;12.14;100.00;98400.25;107319;1276;25316;-67
2023/03/26 06:54:03;;;;;;;2.40;1.00;;;;;;;12.22;100.00;98397.14;107363;1275;25372;-67
2023/03/26 06:56:50;;;;;;;3.40;1.00;;;;;;;12.38;100.00;98397.62;107403;1274;25491;-68
2023/03/26 06:59:37;;;;;;;3.30;1.30;;;;;;;12.42;100.00;98391.09;107372;1274;25402;-67
2023/03/26 07:02:24;;;;;;;3.50;1.20;;;;;;;12.35;100.00;98387.12;107393;1274;24202;-67
2023/03/26 07:05:11;;;;;;;2.20;1.00;;;;;;;12.25;100.00;98380.91;107308;1276;23037;-67
2023/03/26 07:08:00;;;;;;;2.80;1.50;;;;;;;12.06;100.00;98379.73;107297;1276;25494;-67
2023/03/26 07:10:47;;;;;;;3.50;1.20;;;;;;;11.91;100.00;98380.36;107324;1275;22517;-67
2023/03/26 07:13:30;;;;;;;2.50;1.30;;;;;;;11.91;100.00;98388.00;107189;1275;22642;-65
2023/03/26 07:16:19;;;;;;;3.70;1.30;;;;;;;12.09;100.00;98394.77;107356;1275;25252;-67
2023/03/26 07:19:13;;;;;;;2.70;1.20;;;;;;;12.24;100.00;98394.27;107187;1274;22533;-67
2023/03/26 07:21:42;;;;;;;2.70;1.20;;;;;;;12.31;100.00;98389.92;107418;1266;22753;-67
2023/03/26 07:24:30;;;;;;;;;;;;;;;12.47;100.00;98384.65;107378;1276;23233;-67
2023/03/26 07:27:22;;;;;;;2.80;1.20;;;;;;;12.61;100.00;98380.48;107137;1276;22536;-67
2023/03/26 07:29:55;;;;;;;3.10;1.40;;;;;;;12.70;100.00;98371.48;107170;1274;26499;-66
2023/03/26 07:32:51;;;;;;;5.00;1.70;;;;;;;12.85;100.00;98375.52;107219;1274;25372;-68
2023/03/26 07:35:36;;;;;;;4.20;1.70;;;;;;;12.94;100.00;98380.04;107364;1274;26509;-67
2023/03/26 07:38:40;;;;;;;5.20;2.50;;;;;;;13.07;100.00;98388.31;107385;1274;22756;-68
2023/03/26 07:41:57;;;;;;;4.00;3.00;;;;;;;13.34;100.00;98385.94;107384;1274;24234;-68
2023/03/26 07:44:50;;;;;;;5.10;3.60;;;;;;;13.50;100.00;98391.00;107350;1274;22531;-68
2023/03/26 07:47:45;;;;;;;4.80;3.30;;;;;;;13.41;100.00;98395.09;107198;1274;24883;-68
2023/03/26 07:50:23;;;;;;;5.70;4.20;;;;;;;13.36;100.00;98389.79;107357;1274;23085;-68
2023/03/26 07:53:14;;;;;;;5.60;4.10;;;;;;;13.25;100.00;98387.53;107318;1274;25600;-68
2023/03/26 07:56:12;;;;;;;6.30;4.70;;;;;;;13.14;100.00;98390.27;107308;1275;22564;-68
2023/03/26 07:59:11;;;;;;;6.90;4.90;;;;;;;13.01;100.00;98388.14;107125;1275;22538;-68
2023/03/26 08:02:33;;;;;;;6.20;4.40;;;;;;;12.95;100.00;98386.85;110487;1276;22228;-69
2023/03/26 08:05:18;;;;;;;8.70;5.30;;;;;;;12.90;100.00;98393.27;110415;1275;22285;-69
2023/03/26 08:08:19;;;;;;;6.80;5.30;;;;;;;12.83;100.00;98394.77;110485;1276;22682;-69
2023/03/26 08:11:14;;;;;;;10.30;5.80;;;;;;;12.72;100.00;98400.20;110397;1276;22249;-69
2023/03/26 08:13:52;;;;;;;9.60;5.60;;;;;;;12.60;100.00;98401.93;110399;1274;22512;-68
2023/03/26 08:16:22;;;;;;;13.40;10.60;;;;;;;12.63;100.00;98405.92;110532;1274;23382;-69
2023/03/26 08:19:12;;;;;;;15.20;11.30;;;;;;;12.66;100.00;98408.89;109404;1274;24074;-68
2023/03/26 08:21:46;;;;;;;13.00;10.20;;;;;;;12.60;100.00;98408.11;107416;1274;22561;-69
2023/03/26 08:24:20;;;;;;;10.00;8.40;;;;;;;12.54;100.00;98416.79;107333;1275;25428;-68
2023/03/26 08:26:57;;;;;;;9.40;7.30;;;;;;;12.54;100.00;98422.17;107430;1274;22527;-69
2023/03/26 08:29:38;;;;;;;9.30;7.60;;;;;;;12.57;100.00;98423.08;107195;1274;22630;-69
2023/03/26 08:32:13;;;;;;;10.00;7.60;;;;;;;12.62;100.00;98420.54;107132;1274;26053;-69
2023/03/26 08:34:41;;;;;;;9.40;7.00;;;;;;;12.71;100.00;98418.63;106980;1275;26624;-69
2023/03/26 08:37:10;;;;;;;11.40;8.00;;;;;;;12.87;100.00;98418.55;107181;1275;25325;-68
2023/03/26 08:39:38;;;;;;;10.30;7.40;;;;;;;13.04;100.00;98416.84;107279;1275;25287;-69
2023/03/26 08:42:38;;;;;;;10.30;8.40;;;;;;;13.12;100.00;98409.58;107369;1275;22559;-69
2023/03/26 08:45:37;;;;;;;11.10;8.70;;;;;;;13.09;100.00;98404.59;107432;1274;22520;-68
2023/03/26 08:48:24;;;;;;;11.50;8.80;;;;;;;12.89;100.00;98399.36;107097;1274;22635;-69
2023/03/26 08:50:58;;;;;;;10.60;8.20;;;;;;;12.92;100.00;98393.98;106988;1276;25338;-69
2023/03/26 08:53:31;;;;;;;10.20;7.80;;;;;;;13.12;100.00;98389.67;107088;1275;22544;-68
2023/03/26 08:56:28;;;;;;;25.70;17.20;;;;;;;13.37;100.00;98392.77;107046;1274;22583;-69
2023/03/26 08:59:32;;;;;;;19.60;12.40;;;;;;;13.67;100.00;98387.54;107269;1269;23468;-69
2023/03/26 09:02:18;;;;;;;13.10;11.10;;;;;;;13.83;100.00;98387.16;107221;1275;23299;-69
2023/03/26 09:05:17;;;;;;;9.90;7.80;;;;;;;13.83;100.00;98384.67;107244;1274;25538;-69
2023/03/26 09:08:03;;;;;;;11.00;7.40;;;;;;;13.75;100.00;98379.71;107328;1274;25433;-68
2023/03/26 09:10:45;;;;;;;13.70;7.90;;;;;;;13.57;100.00;98372.34;107320;1274;25324;-69
2023/03/26 09:13:40;;;;;;;11.70;8.00;;;;;;;13.46;100.00;98371.48;107685;1251;24244;-68
2023/03/26 09:16:36;;;;;;;11.80;7.90;;;;;;;13.45;100.00;98375.50;107558;1274;25420;-67
2023/03/26 09:19:08;;;;;;;11.50;9.20;;;;;;;13.40;100.00;98382.62;110274;1274;22369;-69
2023/03/26 09:21:46;;;;;;;12.40;8.70;;;;;;;13.36;100.00;98383.45;110533;1274;22155;-69
2023/03/26 09:24:43;;;;;;;11.20;8.10;;;;;;;13.35;100.00;98387.64;110502;1275;22332;-69
2023/03/26 09:27:11;;;;;;;12.50;8.70;;;;;;;13.23;100.00;98389.82;110335;1275;22294;-69
2023/03/26 09:30:01;;;;;;;10.20;7.60;;;;;;;13.05;100.00;98390.66;110444;1275;22154;-69
2023/03/26 09:32:48;;;;;;;12.70;7.60;;;;;;;12.79;100.00;98394.42;110471;1275;22226;-69
2023/03/26 09:35:28;;;;;;;10.40;7.90;;;;;;;12.61;100.00;98392.45;110472;1276;22201;-69
2023/03/26 09:38:23;;;;;;;9.40;7.60;;;;;;;12.49;100.00;98400.66;110483;1276;22393;-69
2023/03/26 09:40:57;;;;;;;9.90;7.30;;;;;;;12.51;100.00;98402.61;109042;1275;22560;-68
2023/03/26 09:43:57;;;;;;;9.50;7.90;;;;;;;12.43;100.00;98405.20;107155;1276;24197;-67
2023/03/26 09:46:41;;;;;;;11.90;7.90;;;;;;;12.34;100.00;98407.46;107023;1275;25663;-67
2023/03/26 09:49:32;;;;;;;11.00;7.50;;;;;;;12.23;100.00;98420.42;107004;1276;23450;-67
2023/03/26 09:52:06;;;;;;;11.20;7.30;;;;;;;12.17;100.00;98423.15;106931;1275;22564;-67
2023/03/26 09:54:47;;;;;;;10.30;7.80;;;;;;;12.09;100.00;98419.21;106927;1275;23318;-67
2023/03/26 09:57:23;;;;;;;9.90;7.80;;;;;;;11.94;100.00;98419.21;107101;1276;25459;-67
2023/03/26 10:00:06;;;;;;;11.10;7.20;;;;;;;11.82;100.00;98418.02;107409;1275;24208;-67
2023/03/26 10:02:56;;;;;;;11.70;7.70;;;;;;;11.70;100.00;98417.70;107323;1275;23250;-67
2023/03/26 10:05:43;;;;;;;11.50;6.90;;;;;;;11.71;100.00;98416.55;107327;1276;23494;-67
2023/03/26 10:08:23;;;;;;;9.90;6.90;;;;;;;11.75;100.00;98414.75;107230;1276;25353;-67
2023/03/26 10:10:55;;;;;;;9.50;6.70;;;;;;;11.80;100.00;98411.04;107253;1274;22518;-66
2023/03/26 10:13:33;;;;;;;11.60;7.20;;;;;;;11.88;100.00;98411.41;107329;1274;22563;-67
2023/03/26 10:16:12;;;;;;;9.40;6.30;;;;;;;12.01;100.00;98410.98;107320;1274;22556;-67
2023/03/26 10:19:18;;;;;;;7.80;5.60;;;;;;;12.14;100.00;98410.46;107446;1274;24449;-67
2023/03/26 10:22:24;;;;;;;7.70;5.00;;;;;;;12.19;100.00;98411.09;107347;1274;23118;-67
2023/03/26 10:25:28;;;;;;;22.30;17.90;;;;;;;12.14;100.00;98413.09;107365;1274;25338;-67
2023/03/26 10:28:31;;;;;;;27.90;19.40;;;;;;;12.03;100.00;98409.89;107348;1274;22650;-66
2023/03/26 10:31:25;;;;;;;71.90;45.30;;;;;;;12.06;100.00;98402.65;106640;1282;22527;-67
2023/03/26 10:34:14;;;;;;;17.20;11.00;;;;;;;12.15;100.00;98404.42;107265;1276;22614;-67
2023/03/26 10:37:28;;;;;;;7.00;4.70;;;;;;;12.31;100.00;98401.55;107115;1276;23463;-68
2023/03/26 10:40:28;;;;;;;11.20;6.60;;;;;;;12.53;100.00;98398.27;108168;1274;22527;-67
2023/03/26 10:43:21;;;;;;;6.90;4.40;;;;;;;12.77;100.00;98394.17;107133;1276;25350;-67
2023/03/26 10:46:13;;;;;;;6.50;3.80;;;;;;;13.07;100.00;98393.20;107307;1275;25263;-67
2023/03/26 10:48:53;;;;;;;9.00;3.50;;;;;;;13.30;100.00;98397.79;107276;1275;26518;-67
2023/03/26 10:51:50;;;;;;;16.00;7.40;;;;;;;13.39;100.00;98387.44;107076;1276;22923;-67
2023/03/26 10:54:58;;;;;;;8.60;4.10;;;;;;;13.42;100.00;98378.49;108143;1275;25434;-67
2023/03/26 10:57:48;;;;;;;7.00;3.90;;;;;;;13.39;100.00;98375.32;107423;1276;22731;-66
2023/03/26 11:00:25;;;;;;;10.10;6.00;;;;;;;13.38;100.00;98375.65;107908;1274;22580;-67
2023/03/26 11:03:10;;;;;;;9.90;5.20;;;;;;;13.34;100.00;98370.95;107394;1274;25523;-67
2023/03/26 11:06:37;;;;;;;15.90;8.90;;;;;;;13.32;100.00;98362.66;107147;1274;24345;-67
2023/03/26 11:09:23;;;;;;;28.60;15.30;;;;;;;13.31;100.00;98354.88;106754;1283;25366;-68
2023/03/26 11:12:00;;;;;;;9.90;5.30;;;;;;;13.27;100.00;98350.95;106631;1284;25306;-67
2023/03/26 11:15:01;;;;;;;13.30;8.00;;;;;;;13.33;100.00;98345.13;107055;1276;22565;-67
2023/03/26 11:17:32;;;;;;;10.30;6.10;;;;;;;13.45;100.00;98347.30;107545;1274;23884;-67
2023/03/26 11:20:31;;;;;;;12.10;5.90;;;;;;;13.54;100.00;98346.90;107336;1274;24347;-67
2023/03/26 11:23:11;;;;;;;5.70;3.50;;;;;;;13.62;100.00;98343.10;107511;1274;25390;-67
2023/03/26 11:26:12;;;;;;;7.20;3.60;;;;;;;13.64;100.00;98334.42;107340;1274;25335;-67
2023/03/26 11:29:01;;;;;;;12.30;6.50;;;;;;;13.57;100.00;98334.86;107028;1276;25516;-67
2023/03/26 11:32:32;;;;;;;5.90;3.40;;;;;;;13.49;100.00;98334.98;107150;1276;25474;-67
2023/03/26 11:35:07;;;;;;;13.30;7.40;;;;;;;13.49;100.00;98337.30;107233;1276;26666;-67
2023/03/26 11:37:43;;;;;;;21.50;10.30;;;;;;;13.54;100.00;98336.57;107621;1274;22523;-67
2023/03/26 11:40:22;;;;;;;39.50;22.80;;;;;;;13.58;100.00;98334.13;107285;1275;25420;-67
2023/03/26 11:42:55;;;;;;;42.90;27.50;;;;;;;13.58;100.00;98336.08;107217;1275;22520;-67
2023/03/26 11:45:25;;;;;;;9.50;5.70;;;;;;;13.59;100.00;98335.73;107223;1274;22527;-67
2023/03/26 11:48:02;;;;;;;4.80;2.90;;;;;;;13.60;100.00;98335.55;107464;1274;25357;-67
2023/03/26 11:50:31;;;;;;;9.40;4.70;;;;;;;13.56;100.00;98332.16;107312;1274;25335;-67
2023/03/26 11:53:15;;;;;;;10.30;4.50;;;;;;;13.44;100.00;98334.44;107479;1274;23369;-67
2023/03/26 11:55:51;;;;;;;3.80;1.90;;;;;;;13.27;100.00;98345.93;107297;1275;22526;-66
2023/03/26 11:58:22;;;;;;;;;;;;;;;12.93;100.00;98338.52;107319;1273;25356;-67
2023/03/26 12:00:51;;;;;;;7.10;1.90;;;;;;;12.59;100.00;98333.17;107110;1276;24245;-67
2023/03/26 12:03:20;;;;;;;5.80;1.90;;;;;;;12.39;100.00;98343.23;107136;1276;22639;-66
2023/03/26 12:05:52;;;;;;;4.70;2.10;;;;;;;12.34;100.00;98345.95;107379;1274;25343;-66
2023/03/26 12:08:27;;;;;;;4.40;1.80;;;;;;;12.32;100.00;98346.17;110480;1275;22191;-68
2023/03/26 12:13:40;;;;;;;3.60;1.70;;;;;;;12.47;100.00;98349.02;103540;1304;545342;-66
2023/03/26 12:16:16;;;;;;;4.80;2.80;;;;;;;12.58;100.00;98352.69;106596;1283;22606;-66
2023/03/26 12:18:56;;;;;;;5.50;3.10;;;;;;;12.71;100.00;98351.20;106949;1288;22526;-66
2023/03/26 12:21:25;;;;;;;5.40;2.80;;;;;;;12.76;100.00;98350.77;106393;1288;23764;-66
2023/03/26 12:23:58;;;;;;;13.30;6.30;;;;;;;12.81;100.00;98343.35;106261;1288;24407;-66